createdAt,value
2022-10-11T00:00:25.217Z,1.85
2022-10-11T00:02:26.897Z,1.92
2022-10-11T00:04:28.315Z,2.13
2022-10-11T00:06:29.824Z,1.77
2022-10-11T00:08:32.631Z,2.20
2022-10-11T00:10:34.561Z,1.88
2022-10-11T00:12:36.934Z,2.47
2022-10-11T00:14:39.092Z,2.15
2022-10-11T00:16:44.254Z,1.85
2022-10-11T00:18:45.690Z,1.98
2022-10-11T00:20:47.155Z,1.88
2022-10-11T00:22:49.515Z,2.15
2022-10-11T00:24:52.660Z,2.20
2022-10-11T00:26:54.130Z,2.38
2022-10-11T00:28:55.737Z,1.83
2022-10-11T00:30:57.671Z,2.50
2022-10-11T00:32:59.145Z,1.80
2022-10-11T00:35:04.726Z,2.08
2022-10-11T00:37:06.203Z,2.22
2022-10-11T00:39:07.673Z,2.03
2022-10-11T00:41:09.359Z,1.90
2022-10-11T00:43:17.078Z,1.63
2022-10-11T00:45:27.717Z,2.10
2022-10-11T00:47:29.148Z,2.00
2022-10-11T00:49:36.719Z,1.98
2022-10-11T00:51:46.571Z,2.25
2022-10-11T00:53:51.023Z,1.60
2022-10-11T00:56:02.146Z,2.05
2022-10-11T00:58:04.484Z,1.95
2022-10-11T01:00:09.354Z,1.73
2022-10-11T01:02:12.069Z,2.22
2022-10-11T01:04:13.526Z,1.77
2022-10-11T01:06:15.018Z,1.55
2022-10-11T01:08:16.512Z,2.10
2022-10-11T01:10:18.031Z,1.63
2022-10-11T01:12:23.439Z,2.05
2022-10-11T01:14:59.939Z,1.90
2022-10-11T01:17:10.218Z,1.60
2022-10-11T01:19:11.591Z,1.55
2022-10-11T01:21:44.775Z,2.00
2022-10-11T01:24:20.721Z,1.60
2022-10-11T01:26:27.850Z,1.80
2022-10-11T01:28:49.097Z,1.70
2022-10-11T01:30:52.090Z,1.90
2022-10-11T01:33:00.668Z,1.60
2022-10-11T01:35:16.398Z,2.63
2022-10-11T01:37:23.709Z,1.67
2022-10-11T01:39:38.789Z,1.83
2022-10-11T01:41:50.383Z,1.73
2022-10-11T01:44:00.296Z,3.05
2022-10-11T01:46:04.173Z,1.75
2022-10-11T01:48:13.769Z,1.73
2022-10-11T01:50:38.968Z,2.00
2022-10-11T01:52:45.024Z,2.63
2022-10-11T01:55:09.043Z,2.03
2022-10-11T01:57:36.173Z,2.55
2022-10-11T02:00:01.801Z,1.92
2022-10-11T02:02:24.598Z,1.50
2022-10-11T02:04:32.875Z,2.38
2022-10-11T02:06:48.250Z,2.20
2022-10-11T02:09:04.366Z,1.83
2022-10-11T02:11:41.469Z,1.95
2022-10-11T02:13:52.947Z,1.50
2022-10-11T02:15:58.330Z,1.88
2022-10-11T02:18:05.950Z,1.60
2022-10-11T02:20:12.619Z,1.90
2022-10-11T02:22:22.014Z,1.63
2022-10-11T02:24:30.507Z,1.98
2022-10-11T02:26:33.820Z,1.80
2022-10-11T02:28:39.431Z,1.88
2022-10-11T02:30:42.502Z,2.03
2022-10-11T02:32:46.322Z,1.60
2022-10-11T02:34:53.545Z,1.50
2022-10-11T02:37:16.821Z,1.45
2022-10-11T02:39:38.472Z,1.60
2022-10-11T02:41:43.127Z,1.75
2022-10-11T02:43:59.457Z,2.28
2022-10-11T02:46:02.450Z,2.22
2022-10-11T02:48:07.146Z,2.20
2022-10-11T02:50:10.933Z,3.58
2022-10-11T02:52:14.259Z,2.47
2022-10-11T02:54:15.679Z,1.88
2022-10-11T02:56:17.094Z,2.15
2022-10-11T02:58:18.603Z,1.63
2022-10-11T03:00:20.084Z,1.80
2022-10-11T03:02:21.606Z,1.50
2022-10-11T03:04:23.041Z,2.53
2022-10-11T03:06:24.456Z,1.90
2022-10-11T03:08:26.253Z,1.98
2022-10-11T03:10:27.672Z,2.25
2022-10-11T03:12:29.110Z,1.42
2022-10-11T03:14:30.568Z,1.50
2022-10-11T03:16:32.014Z,1.70
2022-10-11T03:18:33.482Z,2.30
2022-10-11T03:20:35.415Z,2.42
2022-10-11T03:22:36.879Z,1.50
2022-10-11T03:24:38.317Z,1.83
2022-10-11T03:26:39.824Z,2.30
2022-10-11T03:28:41.403Z,2.00
2022-10-11T03:30:42.930Z,1.83
2022-10-11T03:32:44.540Z,1.90
2022-10-11T03:34:45.941Z,2.00
2022-10-11T03:36:47.498Z,1.63
2022-10-11T03:38:48.943Z,2.15
2022-10-11T03:40:50.816Z,1.50
2022-10-11T03:42:52.269Z,1.80
2022-10-11T03:44:53.799Z,1.70
2022-10-11T03:46:55.246Z,2.03
2022-10-11T03:48:56.731Z,1.48
2022-10-11T03:50:58.152Z,1.73
2022-10-11T03:52:59.606Z,1.75
2022-10-11T03:55:01.246Z,2.15
2022-10-11T03:57:02.704Z,2.10
2022-10-11T03:59:04.208Z,2.17
2022-10-11T04:01:05.660Z,2.63
2022-10-11T04:03:07.108Z,1.83
2022-10-11T04:05:08.894Z,1.85
2022-10-11T04:07:10.560Z,1.80
2022-10-11T04:09:12.000Z,1.80
2022-10-11T04:11:13.437Z,2.30
2022-10-11T04:13:15.147Z,1.70
2022-10-11T04:15:16.712Z,2.03
2022-10-11T04:17:18.181Z,2.08
2022-10-11T04:19:20.206Z,2.10
2022-10-11T04:21:21.625Z,1.65
2022-10-11T04:23:23.105Z,1.65
2022-10-11T04:25:24.601Z,1.80
2022-10-11T04:27:29.535Z,2.05
2022-10-11T04:29:32.752Z,1.73
2022-10-11T04:31:34.455Z,2.30
2022-10-11T04:33:35.956Z,2.78
2022-10-11T04:35:37.499Z,2.38
2022-10-11T04:37:38.986Z,1.83
2022-10-11T04:39:40.445Z,2.55
2022-10-11T04:41:41.897Z,1.90
2022-10-11T04:43:43.348Z,2.00
2022-10-11T04:45:44.806Z,2.88
2022-10-11T04:47:46.939Z,2.05
2022-10-11T04:49:48.567Z,2.40
2022-10-11T04:51:50.230Z,2.95
2022-10-11T04:53:51.801Z,3.25
2022-10-11T04:56:08.967Z,2.28
2022-10-11T04:58:10.828Z,2.90
2022-10-11T05:00:12.731Z,2.55
2022-10-11T05:02:14.206Z,2.70
2022-10-11T05:04:15.739Z,2.65
2022-10-11T05:06:17.247Z,2.75
2022-10-11T05:08:19.942Z,2.58
2022-10-11T05:10:21.413Z,3.88
2022-10-11T05:12:23.289Z,3.55
2022-10-11T05:14:24.971Z,2.38
2022-10-11T05:16:26.450Z,3.17
2022-10-11T05:18:29.083Z,2.42
2022-10-11T05:20:30.547Z,1.88
2022-10-11T05:22:31.975Z,2.40
2022-10-11T05:24:33.495Z,2.28
2022-10-11T05:26:35.173Z,2.58
2022-10-11T05:28:36.699Z,2.22
2022-10-11T05:30:38.233Z,2.15
2022-10-11T05:32:39.753Z,2.60
2022-10-11T05:34:41.201Z,3.00
2022-10-11T05:36:42.658Z,3.00
2022-10-11T05:38:44.288Z,3.35
2022-10-11T05:40:45.806Z,2.40
2022-10-11T05:42:47.244Z,2.25
2022-10-11T05:44:48.780Z,2.20
2022-10-11T05:46:50.214Z,3.08
2022-10-11T05:48:51.709Z,2.28
2022-10-11T05:50:58.106Z,3.13
2022-10-11T05:52:59.598Z,2.30
2022-10-11T05:55:01.108Z,3.42
2022-10-11T05:57:02.618Z,2.55
2022-10-11T05:59:05.024Z,4.28
2022-10-11T06:01:06.491Z,2.55
2022-10-11T06:03:10.940Z,2.50
2022-10-11T06:05:12.924Z,2.22
2022-10-11T06:07:14.364Z,2.75
2022-10-11T06:09:15.813Z,2.47
2022-10-11T06:11:26.286Z,2.42
2022-10-11T06:13:27.693Z,3.40
2022-10-11T06:15:29.260Z,2.28
2022-10-11T06:17:30.785Z,2.38
2022-10-11T06:19:32.327Z,2.63
2022-10-11T06:21:33.760Z,3.25
2022-10-11T06:23:35.242Z,3.10
2022-10-11T06:25:36.889Z,2.22
2022-10-11T06:27:38.413Z,2.60
2022-10-11T06:29:39.847Z,2.38
2022-10-11T06:31:41.295Z,2.58
2022-10-11T06:33:42.787Z,2.30
2022-10-11T06:35:44.205Z,2.38
2022-10-11T06:37:45.698Z,2.15
2022-10-11T06:39:47.140Z,2.40
2022-10-11T06:41:48.628Z,2.33
2022-10-11T06:43:50.170Z,2.90
2022-10-11T06:45:51.599Z,3.85
2022-10-11T06:47:53.084Z,2.67
2022-10-11T06:49:54.564Z,2.75
2022-10-11T06:51:56.067Z,3.50
2022-10-11T06:53:59.699Z,4.28
2022-10-11T06:56:05.990Z,3.60
2022-10-11T06:58:07.768Z,3.90
2022-10-11T07:00:12.619Z,3.28
2022-10-11T07:02:14.344Z,3.72
2022-10-11T07:04:15.783Z,3.47
2022-10-11T07:06:22.471Z,3.95
2022-10-11T07:08:23.860Z,4.78
2022-10-11T07:10:25.321Z,4.07
2022-10-11T07:12:26.946Z,4.28
2022-10-11T07:14:28.636Z,3.72
2022-10-11T07:16:30.575Z,4.93
2022-10-11T07:18:32.543Z,3.60
2022-10-11T07:20:34.025Z,4.15
2022-10-11T07:22:35.494Z,2.97
2022-10-11T07:24:36.975Z,2.80
2022-10-11T07:26:39.330Z,3.20
2022-10-11T07:28:41.674Z,2.58
2022-10-11T07:30:44.115Z,2.83
2022-10-11T07:32:45.519Z,3.28
2022-10-11T07:34:47.002Z,3.85
2022-10-11T07:36:48.819Z,4.22
2022-10-11T07:38:50.531Z,4.93
2022-10-11T07:40:52.134Z,2.50
2022-10-11T07:42:53.675Z,2.58
2022-10-11T07:44:55.109Z,2.70
2022-10-11T07:46:56.514Z,2.90
2022-10-11T07:48:58.285Z,3.25
2022-10-11T07:51:08.306Z,2.97
2022-10-11T07:53:09.949Z,2.50
2022-10-11T07:55:11.369Z,2.97
2022-10-11T07:57:12.794Z,2.67
2022-10-11T07:59:14.217Z,3.55
2022-10-11T08:01:15.680Z,2.50
2022-10-11T08:03:17.144Z,2.47
2022-10-11T08:05:18.676Z,2.88
2022-10-11T08:07:20.085Z,3.17
2022-10-11T08:09:21.492Z,3.10
2022-10-11T08:11:29.053Z,3.15
2022-10-11T08:13:30.522Z,2.45
2022-10-11T08:15:32.372Z,2.95
2022-10-11T08:17:33.842Z,3.45
2022-10-11T08:19:35.342Z,2.35
2022-10-11T08:21:37.105Z,2.60
2022-10-11T08:23:39.099Z,3.20
2022-10-11T08:25:43.927Z,2.67
2022-10-11T08:27:45.348Z,2.30
2022-10-11T08:29:46.999Z,2.83
2022-10-11T08:31:48.525Z,2.40
2022-10-11T08:33:50.197Z,3.00
2022-10-11T08:35:53.014Z,3.45
2022-10-11T08:37:54.701Z,2.67
2022-10-11T08:39:56.245Z,2.60
2022-10-11T08:42:15.416Z,2.53
2022-10-11T08:45:08.939Z,3.33
2022-10-11T08:47:13.670Z,2.78
2022-10-11T08:49:15.564Z,2.05
2022-10-11T08:51:38.557Z,2.35
2022-10-11T08:53:46.360Z,2.25
2022-10-11T08:55:52.218Z,2.38
2022-10-11T08:57:56.429Z,2.83
2022-10-11T09:00:13.657Z,2.90
2022-10-11T09:02:23.796Z,2.30
2022-10-11T09:04:25.778Z,1.95
2022-10-11T09:06:45.879Z,1.67
2022-10-11T09:08:59.441Z,2.58
2022-10-11T09:11:36.160Z,2.38
2022-10-11T09:13:58.713Z,2.88
2022-10-11T09:16:12.538Z,2.60
2022-10-11T09:19:08.149Z,2.17
2022-10-11T09:21:40.363Z,2.17
2022-10-11T09:24:10.523Z,3.35
2022-10-11T09:26:25.604Z,2.55
2022-10-11T09:28:36.212Z,2.10
2022-10-11T09:30:45.640Z,2.40
2022-10-11T09:33:11.637Z,2.08
2022-10-11T09:35:18.593Z,2.10
2022-10-11T09:37:29.678Z,1.70
2022-10-11T09:39:37.142Z,2.50
2022-10-11T09:41:50.380Z,2.08
2022-10-11T09:43:52.509Z,1.83
2022-10-11T09:45:54.023Z,2.33
2022-10-11T09:47:59.496Z,2.03
2022-10-11T09:50:04.354Z,2.00
2022-10-11T09:52:14.133Z,2.38
2022-10-11T09:54:17.638Z,2.45
2022-10-11T09:56:19.504Z,2.40
2022-10-11T09:58:33.820Z,2.25
2022-10-11T10:00:35.496Z,1.70
2022-10-11T10:02:51.639Z,2.22
2022-10-11T10:05:04.356Z,2.22
2022-10-11T10:07:10.982Z,2.42
2022-10-11T10:09:38.474Z,2.50
2022-10-11T10:11:39.922Z,2.13
2022-10-11T10:13:59.447Z,2.60
2022-10-11T10:16:01.273Z,2.33
2022-10-11T10:18:06.525Z,2.38
2022-10-11T10:20:21.695Z,2.30
2022-10-11T10:22:27.277Z,1.98
2022-10-11T10:24:31.638Z,2.20
2022-10-11T10:26:33.331Z,2.00
2022-10-11T10:28:35.698Z,1.98
2022-10-11T10:30:37.226Z,1.90
2022-10-11T10:32:48.210Z,2.33
2022-10-11T10:35:02.954Z,2.28
2022-10-11T10:37:19.832Z,2.30
2022-10-11T10:39:40.450Z,2.28
2022-10-11T10:41:42.050Z,2.03
2022-10-11T10:43:55.666Z,2.45
2022-10-11T10:46:21.746Z,3.17
2022-10-11T10:49:11.663Z,2.58
2022-10-11T10:51:11.550Z,2.42
2022-10-11T10:53:39.019Z,2.00
2022-10-11T10:55:44.872Z,2.30
2022-10-11T10:58:06.318Z,1.92
2022-10-11T11:00:17.395Z,1.88
2022-10-11T11:02:46.658Z,2.05
2022-10-11T11:07:32.942Z,2.03
2022-10-11T11:09:50.095Z,2.08
2022-10-11T11:12:27.171Z,1.80
2022-10-11T11:14:37.351Z,1.70
2022-10-11T11:17:16.561Z,1.80
2022-10-11T11:19:20.924Z,2.30
2022-10-11T11:21:39.117Z,1.90
2022-10-11T11:24:20.511Z,1.92
2022-10-11T11:26:44.249Z,2.40
2022-10-11T11:29:07.230Z,1.83
2022-10-11T11:31:59.393Z,1.77
2022-10-11T11:34:06.451Z,2.42
2022-10-11T11:36:16.582Z,2.45
2022-10-11T11:38:40.329Z,1.98
2022-10-11T11:40:49.097Z,2.33
2022-10-11T11:43:23.054Z,1.85
2022-10-11T11:45:30.387Z,1.92
2022-10-11T11:47:36.756Z,1.50
2022-10-11T11:51:46.804Z,2.00
2022-10-11T11:54:06.332Z,2.03
2022-10-11T11:56:26.801Z,1.45
2022-10-11T11:58:38.689Z,1.90
2022-10-11T12:01:04.163Z,1.88
2022-10-11T12:03:16.158Z,1.70
2022-10-11T12:05:21.960Z,1.85
2022-10-11T12:07:25.526Z,1.95
2022-10-11T12:09:27.441Z,1.50
2022-10-11T12:11:41.976Z,2.47
2022-10-11T12:13:44.614Z,1.73
2022-10-11T12:15:59.385Z,1.30
2022-10-11T12:18:16.773Z,1.60
2022-10-11T12:20:31.491Z,1.70
2022-10-11T12:22:50.919Z,1.50
2022-10-11T12:25:17.602Z,1.58
2022-10-11T12:27:44.738Z,1.30
2022-10-11T12:29:46.290Z,1.90
2022-10-11T12:31:50.238Z,1.52
2022-10-11T12:34:03.206Z,1.30
2022-10-11T12:36:34.017Z,1.65
2022-10-11T12:38:39.982Z,1.70
2022-10-11T12:40:43.109Z,1.65
2022-10-11T12:43:12.307Z,1.42
2022-10-11T12:45:13.672Z,1.67
2022-10-11T12:47:40.924Z,1.90
2022-10-11T12:50:06.865Z,1.92
2022-10-11T12:52:17.539Z,2.00
2022-10-11T12:54:44.186Z,2.10
2022-10-11T12:57:13.516Z,1.40
2022-10-11T12:59:21.278Z,2.10
2022-10-11T13:01:26.304Z,2.20
2022-10-11T13:03:32.816Z,1.30
2022-10-11T13:05:45.552Z,1.17
2022-10-11T13:07:49.258Z,1.05
2022-10-11T13:09:53.990Z,1.45
2022-10-11T13:11:58.810Z,1.13
2022-10-11T13:14:07.858Z,2.67
2022-10-11T13:16:16.897Z,1.35
2022-10-11T13:18:18.871Z,1.20
2022-10-11T13:20:30.587Z,2.22
2022-10-11T13:22:34.575Z,2.08
2022-10-11T13:24:38.706Z,1.13
2022-10-11T13:26:40.756Z,1.33
2022-10-11T13:28:42.931Z,1.55
2022-10-11T13:30:48.246Z,1.20
2022-10-11T13:32:51.907Z,1.00
2022-10-11T13:37:03.220Z,1.42
2022-10-11T13:39:04.774Z,1.10
2022-10-11T13:41:09.126Z,1.20
2022-10-11T13:43:13.512Z,1.20
2022-10-11T13:45:19.073Z,1.67
2022-10-11T13:47:24.781Z,1.20
2022-10-11T13:49:29.104Z,1.58
2022-10-11T13:51:37.784Z,1.27
2022-10-11T13:58:03.705Z,1.20
2022-10-11T14:00:20.017Z,1.48
2022-10-11T14:02:23.882Z,1.33
2022-10-11T14:04:29.532Z,1.20
2022-10-11T14:06:52.830Z,1.10
2022-10-11T14:08:56.254Z,1.25
2022-10-11T14:11:02.490Z,1.63
2022-10-11T14:13:30.564Z,1.08
2022-10-11T14:15:35.606Z,1.85
2022-10-11T14:17:45.416Z,1.10
2022-10-11T14:20:07.389Z,1.02
2022-10-11T14:22:18.265Z,1.63
2022-10-11T14:24:20.604Z,1.33
2022-10-11T14:26:24.389Z,1.13
2022-10-11T14:28:26.063Z,1.17
2022-10-11T14:30:28.551Z,1.33
2022-10-11T14:32:33.708Z,1.45
2022-10-11T14:34:35.672Z,1.33
2022-10-11T14:36:37.105Z,1.27
2022-10-11T14:38:38.606Z,1.45
2022-10-11T14:40:40.357Z,1.23
2022-10-11T14:42:42.066Z,1.60
2022-10-11T14:44:43.604Z,1.30
2022-10-11T14:46:46.431Z,1.52
2022-10-11T14:48:56.744Z,1.52
2022-10-11T14:51:01.129Z,1.63
2022-10-11T14:53:03.766Z,1.95
2022-10-11T14:55:05.292Z,2.20
2022-10-11T14:57:06.753Z,1.85
2022-10-11T14:59:10.102Z,1.30
2022-10-11T15:01:15.661Z,1.77
2022-10-11T15:03:17.152Z,1.30
2022-10-11T15:05:19.617Z,1.75
2022-10-11T15:07:21.099Z,1.45
2022-10-11T15:09:23.084Z,1.40
2022-10-11T15:11:24.998Z,1.88
2022-10-11T15:13:26.396Z,2.42
2022-10-11T15:15:30.495Z,1.30
2022-10-11T15:17:31.925Z,1.40
2022-10-11T15:19:33.370Z,1.25
2022-10-11T15:21:35.359Z,1.27
2022-10-11T15:23:36.784Z,1.75
2022-10-11T15:25:40.119Z,1.90
2022-10-11T15:27:42.351Z,1.42
2022-10-11T15:29:43.769Z,2.00
2022-10-11T15:31:46.497Z,1.83
2022-10-11T15:33:48.040Z,1.48
2022-10-11T15:35:49.497Z,1.50
2022-10-11T15:37:56.590Z,1.95
2022-10-11T15:39:58.018Z,1.40
2022-10-11T15:41:59.925Z,1.80
2022-10-11T15:44:01.365Z,1.38
2022-10-11T15:46:03.284Z,1.30
2022-10-11T15:48:05.505Z,1.58
2022-10-11T15:50:15.583Z,2.20
2022-10-11T15:52:16.994Z,2.13
2022-10-11T15:54:18.440Z,2.05
2022-10-11T15:56:19.986Z,1.63
2022-10-11T15:58:24.677Z,1.77
2022-10-11T16:00:26.659Z,1.52
2022-10-11T16:02:28.448Z,2.30
2022-10-11T16:04:30.214Z,2.13
2022-10-11T16:06:33.238Z,2.17
2022-10-11T16:08:35.400Z,1.50
2022-10-11T16:10:37.607Z,2.10
2022-10-11T16:12:39.038Z,1.73
2022-10-11T16:14:44.899Z,2.25
2022-10-11T16:16:48.555Z,2.05
2022-10-11T16:18:51.050Z,2.05
2022-10-11T16:20:52.551Z,1.50
2022-10-11T16:22:55.337Z,2.65
2022-10-11T16:24:56.744Z,3.78
2022-10-11T16:26:58.217Z,2.05
2022-10-11T16:28:59.747Z,1.55
2022-10-11T16:31:13.917Z,2.95
2022-10-11T16:33:15.330Z,1.77
2022-10-11T16:35:17.549Z,2.22
2022-10-11T16:37:19.153Z,2.33
2022-10-11T16:39:20.682Z,1.50
2022-10-11T16:41:22.127Z,2.15
2022-10-11T16:43:23.600Z,3.17
2022-10-11T16:45:25.020Z,2.42
2022-10-11T16:47:26.568Z,1.63
2022-10-11T16:49:28.598Z,2.05
2022-10-11T16:51:30.227Z,2.35
2022-10-11T16:53:34.212Z,1.95
2022-10-11T16:55:35.658Z,1.88
2022-10-11T16:57:37.827Z,2.70
2022-10-11T16:59:39.375Z,2.78
2022-10-11T17:01:41.594Z,2.22
2022-10-11T17:03:43.121Z,1.77
2022-10-11T17:05:44.548Z,2.20
2022-10-11T17:07:46.047Z,2.53
2022-10-11T17:09:48.625Z,2.60
2022-10-11T17:11:50.438Z,2.55
2022-10-11T17:13:53.470Z,2.17
2022-10-11T17:15:55.003Z,2.35
2022-10-11T17:17:56.430Z,2.25
2022-10-11T17:19:57.948Z,2.55
2022-10-11T17:21:59.691Z,2.63
2022-10-11T17:24:01.112Z,2.58
2022-10-11T17:26:10.785Z,2.10
2022-10-11T17:28:13.208Z,2.13
2022-10-11T17:30:15.180Z,2.60
2022-10-11T17:32:16.609Z,2.10
2022-10-11T17:34:18.239Z,2.10
2022-10-11T17:36:19.703Z,2.30
2022-10-11T17:38:22.301Z,2.17
2022-10-11T17:40:23.711Z,3.33
2022-10-11T17:42:25.129Z,3.10
2022-10-11T17:44:26.550Z,2.75
2022-10-11T17:46:32.307Z,2.78
2022-10-11T17:48:36.775Z,2.60
2022-10-11T17:50:41.212Z,2.45
2022-10-11T17:52:42.807Z,2.53
2022-10-11T17:54:44.320Z,2.72
2022-10-11T17:56:45.771Z,3.50
2022-10-11T17:58:48.811Z,3.10
2022-10-11T18:00:50.847Z,3.42
2022-10-11T18:02:53.517Z,4.07
2022-10-11T18:04:56.685Z,3.40
2022-10-11T18:06:58.177Z,3.42
2022-10-11T18:09:01.878Z,3.30
2022-10-11T18:11:04.075Z,4.63
2022-10-11T18:13:06.789Z,4.35
2022-10-11T18:15:09.283Z,4.18
2022-10-11T18:17:10.730Z,4.82
2022-10-11T18:19:13.281Z,4.82
2022-10-11T18:21:16.112Z,4.40
2022-10-11T18:23:18.679Z,6.07
2022-10-11T18:25:20.300Z,5.07
2022-10-11T18:27:21.814Z,5.05
2022-10-11T18:29:23.234Z,5.28
2022-10-11T18:31:27.635Z,5.20
2022-10-11T18:33:29.051Z,5.40
2022-10-11T18:35:30.474Z,5.57
2022-10-11T18:37:31.912Z,5.70
2022-10-11T18:39:33.381Z,5.65
2022-10-11T18:41:36.115Z,5.90
2022-10-11T18:43:37.681Z,6.00
2022-10-11T18:45:39.090Z,5.35
2022-10-11T18:47:40.530Z,6.18
2022-10-11T18:49:41.978Z,6.13
2022-10-11T18:51:45.123Z,6.32
2022-10-11T18:53:47.199Z,6.45
2022-10-11T18:55:48.695Z,5.75
2022-10-11T18:57:50.249Z,6.15
2022-10-11T18:59:52.553Z,6.28
2022-10-11T19:01:54.017Z,6.55
2022-10-11T19:03:57.247Z,6.38
2022-10-11T19:06:02.185Z,6.78
2022-10-11T19:08:03.689Z,6.70
2022-10-11T19:10:05.589Z,8.65
2022-10-11T19:12:07.105Z,8.05
2022-10-11T19:14:14.848Z,6.97
2022-10-11T19:16:17.708Z,5.80
2022-10-11T19:18:20.595Z,6.50
2022-10-11T19:20:22.123Z,6.47
2022-10-11T19:22:23.579Z,7.15
2022-10-11T19:24:27.480Z,6.18
2022-10-11T19:26:33.325Z,5.10
2022-10-11T19:28:35.050Z,4.82
2022-10-11T19:30:36.544Z,4.82
2022-10-11T19:32:38.007Z,4.32
2022-10-11T19:34:39.411Z,5.75
2022-10-11T19:36:44.193Z,4.72
2022-10-11T19:38:48.330Z,4.50
2022-10-11T19:40:50.549Z,3.88
2022-10-11T19:42:51.972Z,4.15
2022-10-11T19:44:53.392Z,4.78
2022-10-11T19:46:54.808Z,4.00
2022-10-11T19:48:56.418Z,4.38
2022-10-11T19:51:08.403Z,4.95
2022-10-11T19:53:10.220Z,5.10
2022-10-11T19:55:11.767Z,4.75
2022-10-11T19:57:13.225Z,4.75
2022-10-11T19:59:14.842Z,4.50
2022-10-11T20:01:19.466Z,3.83
2022-10-11T20:03:20.915Z,4.38
2022-10-11T20:05:22.357Z,3.97
2022-10-11T20:07:24.039Z,4.00
2022-10-11T20:09:30.375Z,4.57
2022-10-11T20:11:32.316Z,4.30
2022-10-11T20:13:35.219Z,4.13
2022-10-11T20:15:38.012Z,4.78
2022-10-11T20:17:48.319Z,3.92
2022-10-11T20:19:49.822Z,4.68
2022-10-11T20:21:52.105Z,4.13
2022-10-11T20:23:57.736Z,4.07
2022-10-11T20:26:12.784Z,4.15
2022-10-11T20:28:14.268Z,4.47
2022-10-11T20:30:15.754Z,4.35
2022-10-11T20:32:17.210Z,4.82
2022-10-11T20:34:18.755Z,5.25
2022-10-11T20:36:22.078Z,4.97
2022-10-11T20:38:23.497Z,4.95
2022-10-11T20:40:25.119Z,4.55
2022-10-11T20:42:29.748Z,5.43
2022-10-11T20:44:31.530Z,5.05
2022-10-11T20:46:35.081Z,4.70
2022-10-11T20:48:38.007Z,5.50
2022-10-11T20:50:43.996Z,4.68
2022-10-11T20:52:45.848Z,4.75
2022-10-11T20:54:47.368Z,4.28
2022-10-11T20:56:48.876Z,4.60
2022-10-11T20:58:55.158Z,5.20
2022-10-11T21:00:57.013Z,4.60
2022-10-11T21:02:58.492Z,5.10
2022-10-11T21:05:00.032Z,4.82
2022-10-11T21:07:01.474Z,4.80
2022-10-11T21:09:02.967Z,4.65
2022-10-11T21:11:04.873Z,4.38
2022-10-11T21:13:06.372Z,5.93
2022-10-11T21:15:08.168Z,5.28
2022-10-11T21:17:09.591Z,5.68
2022-10-11T21:19:14.404Z,5.32
2022-10-11T21:21:15.953Z,6.03
2022-10-11T21:23:18.897Z,6.13
2022-10-11T21:25:20.573Z,5.80
2022-10-11T21:27:21.999Z,5.68
2022-10-11T21:29:23.421Z,6.38
2022-10-11T21:31:27.425Z,5.85
2022-10-11T21:33:31.245Z,5.85
2022-10-11T21:35:34.012Z,5.35
2022-10-11T21:37:35.963Z,5.63
2022-10-11T21:39:37.817Z,6.10
2022-10-11T21:41:41.918Z,5.90
2022-10-11T21:43:43.529Z,6.45
2022-10-11T21:45:45.839Z,6.03
2022-10-11T21:47:47.340Z,6.68
2022-10-11T21:49:48.756Z,6.70
2022-10-11T21:51:50.442Z,5.97
2022-10-11T21:53:52.510Z,6.22
2022-10-11T21:55:58.194Z,5.20
2022-10-11T21:57:59.630Z,5.65
2022-10-11T22:00:01.075Z,5.90
2022-10-11T22:02:02.586Z,5.32
2022-10-11T22:04:04.924Z,6.18
2022-10-11T22:06:06.532Z,5.53
2022-10-11T22:08:07.933Z,6.15
2022-10-11T22:10:09.385Z,5.65
2022-10-11T22:12:10.814Z,5.50
2022-10-11T22:14:12.759Z,5.28
2022-10-11T22:16:14.305Z,5.63
2022-10-11T22:18:15.844Z,4.93
2022-10-11T22:20:17.380Z,4.97
2022-10-11T22:22:18.827Z,5.40
2022-10-11T22:24:20.319Z,4.95
2022-10-11T22:26:25.222Z,5.10
2022-10-11T22:28:26.653Z,5.72
2022-10-11T22:30:28.196Z,5.45
2022-10-11T22:32:29.677Z,5.38
2022-10-11T22:34:32.449Z,4.43
2022-10-11T22:36:33.967Z,5.13
2022-10-11T22:38:37.193Z,5.50
2022-10-11T22:40:41.757Z,6.00
2022-10-11T22:42:43.226Z,5.65
2022-10-11T22:44:44.650Z,5.82
2022-10-11T22:46:46.393Z,4.90
2022-10-11T22:48:47.871Z,4.88
2022-10-11T22:50:49.424Z,4.55
2022-10-11T22:52:50.847Z,5.20
2022-10-11T22:54:52.277Z,4.90
2022-10-11T22:56:53.769Z,4.60
2022-10-11T22:58:55.260Z,4.28
2022-10-11T23:00:56.684Z,4.70
2022-10-11T23:02:58.357Z,4.63
2022-10-11T23:04:59.768Z,4.38
2022-10-11T23:07:04.789Z,4.65
2022-10-11T23:09:06.671Z,4.82
2022-10-11T23:11:08.202Z,4.85
2022-10-11T23:13:09.627Z,4.53
2022-10-11T23:15:11.988Z,4.60
2022-10-11T23:17:13.430Z,4.35
2022-10-11T23:19:14.869Z,3.72
2022-10-11T23:21:16.311Z,5.63
2022-10-11T23:23:17.741Z,4.20
2022-10-11T23:25:19.172Z,4.30
2022-10-11T23:27:20.871Z,4.30
2022-10-11T23:29:22.291Z,4.10
2022-10-11T23:31:23.767Z,4.25
2022-10-11T23:33:25.696Z,4.68
2022-10-11T23:35:27.133Z,3.80
2022-10-11T23:37:28.608Z,3.97
2022-10-11T23:39:30.381Z,3.85
2022-10-11T23:41:31.825Z,4.32
2022-10-11T23:43:33.260Z,4.70
2022-10-11T23:45:34.722Z,3.97
2022-10-11T23:47:36.475Z,4.20
2022-10-11T23:49:38.167Z,3.33
2022-10-11T23:51:39.696Z,3.72
2022-10-11T23:53:41.366Z,3.47
2022-10-11T23:55:42.892Z,3.75
2022-10-11T23:57:44.389Z,3.85
2022-10-11T23:59:45.803Z,4.05
